Cracovia, Polonia

06:39 PM CEST on octombrie 21, 2014 (GMT +0200)
John Paul II International / Krakow-Balice | Change Station
CLOSE
Current Station
Aeroport
Location: Krakow,
Elevation: 778 ft
Nearby Weather Stations

Elev 778 ft 50.08 °N, 19.80 °E | Updated 9 minutes ago

Clear
Cer senin
50 °F
Feels Like 50 °F
N
0
Vânt variabil Vânt from nord

astăzi
High -- | Low -- °F
--% Chance of Precip.
Ieri
High -- | Low -- °F
Precip. -- inch
7:12 AM 5:37 PM
Semilună în descreştere, 5% visible
Presiunea 29.74 inch
Vizibilitatea -9999.0 mile
Nori
Punctul de rouă 46 °F
Umiditatea 87%
Precipitaţii 0.00 inch
Adâncimea zăpezii Not available.
UV Not available.
Pollen Not available.
Calitatea aerului Not available.
Flu Activity Not available.
METAR EPKK 211630Z 00000KT CAVOK 10/08 Q1007

More Conditions Fewer Conditions

Presiunea 29.74 inch
Vizibilitatea -9999.0 mile
Nori
Punctul de rouă 46 °F
Umiditatea 87%
Precipitaţii 0.00 inch
Adâncimea zăpezii Not available.
UV Not available.
Pollen Not available.
Calitatea aerului Not available.
Flu Activity Not available.
METAR EPKK 211630Z 00000KT CAVOK 10/08 Q1007

More Conditions Fewer Conditions

10-Day Weather Forecast

Almanac

Astronomie

Oct. 21, 2014 Răsărit Apus
Timpul Actual 7:12 AM CEST 5:37 PM CEST
Crepusculul Civil 6:39 AM CEST 6:10 PM CEST
Crepusculul nautic 6:01 AM CEST 6:48 PM CEST
Răsărit Astronomic 5:23 AM CEST 7:25 PM CEST
Luna 4:24 AM CEST 4:34 PM CEST
Durata zilei lumină 11h 31m
Lungimea zilei
10h 25m
Tomorrow will be 3m 35s shorter.
Semilună în descreştere, 5% of the Moon is Illuminated
astăzi
Semilună în descreştere
Oct 23
New
Oct 30
Primul pătrar
Nov 6
Lună plină
Nov 14
Ultimul pătrar

Extremele de azi

Country Highs Country Lows

Community

WunderPhotos

Upload Photos

1,763,705 photos uploaded!

Nearby

Calitatea aerului

Not available.

Adâncimea zapezii

Not available.

Earthquake Activity

Oraş Distance Mag. Time & Date
No recent earthquake activity has been reported nearby.
Minimum magnitude displayed is 2.5.

Coastal Water Temperatures

Locul Temperatura
No Stations Reporting

Nearby Weather Stations